sensor_id;sensor_type;location;lat;lon;timestamp;P1;durP1;ratioP1;P2;durP2;ratioP2
62584;SDS011;48643;51.670;5.808;2023-04-25T00:01:23;7.57;;;2.72;;
62584;SDS011;48643;51.670;5.808;2023-04-25T00:03:50;9.13;;;3.10;;
62584;SDS011;48643;51.670;5.808;2023-04-25T00:06:18;8.45;;;2.95;;
62584;SDS011;48643;51.670;5.808;2023-04-25T00:08:44;7.38;;;3.00;;
62584;SDS011;48643;51.670;5.808;2023-04-25T00:11:11;6.97;;;3.10;;
62584;SDS011;48643;51.670;5.808;2023-04-25T00:13:38;7.40;;;3.00;;
62584;SDS011;48643;51.670;5.808;2023-04-25T00:16:07;8.38;;;3.00;;
62584;SDS011;48643;51.670;5.808;2023-04-25T00:18:34;8.10;;;2.90;;
62584;SDS011;48643;51.670;5.808;2023-04-25T00:21:02;7.88;;;3.08;;
62584;SDS011;48643;51.670;5.808;2023-04-25T00:25:58;8.25;;;3.10;;
62584;SDS011;48643;51.670;5.808;2023-04-25T00:28:27;8.75;;;3.13;;
62584;SDS011;48643;51.670;5.808;2023-04-25T00:30:54;7.53;;;3.03;;
62584;SDS011;48643;51.670;5.808;2023-04-25T00:33:20;5.88;;;2.70;;
62584;SDS011;48643;51.670;5.808;2023-04-25T00:35:47;6.60;;;2.60;;
62584;SDS011;48643;51.670;5.808;2023-04-25T00:38:14;7.75;;;2.78;;
62584;SDS011;48643;51.670;5.808;2023-04-25T00:40:41;13.57;;;3.40;;
62584;SDS011;48643;51.670;5.808;2023-04-25T00:43:09;11.98;;;3.10;;
62584;SDS011;48643;51.670;5.808;2023-04-25T00:45:37;7.25;;;2.58;;
62584;SDS011;48643;51.670;5.808;2023-04-25T00:48:05;9.05;;;3.00;;
62584;SDS011;48643;51.670;5.808;2023-04-25T00:50:35;7.65;;;3.03;;
62584;SDS011;48643;51.670;5.808;2023-04-25T00:53:02;9.52;;;3.00;;
62584;SDS011;48643;51.670;5.808;2023-04-25T00:55:30;6.05;;;2.97;;
62584;SDS011;48643;51.670;5.808;2023-04-25T00:57:57;6.78;;;2.40;;
62584;SDS011;48643;51.670;5.808;2023-04-25T01:00:24;7.75;;;2.80;;
62584;SDS011;48643;51.670;5.808;2023-04-25T01:02:51;6.20;;;2.72;;
62584;SDS011;48643;51.670;5.808;2023-04-25T01:05:18;6.07;;;2.92;;
62584;SDS011;48643;51.670;5.808;2023-04-25T01:07:46;9.10;;;2.72;;
62584;SDS011;48643;51.670;5.808;2023-04-25T01:10:13;7.43;;;2.60;;
62584;SDS011;48643;51.670;5.808;2023-04-25T01:12:40;8.52;;;3.00;;
62584;SDS011;48643;51.670;5.808;2023-04-25T01:15:08;6.60;;;2.83;;
62584;SDS011;48643;51.670;5.808;2023-04-25T01:17:35;6.32;;;2.88;;
62584;SDS011;48643;51.670;5.808;2023-04-25T01:20:05;9.75;;;2.75;;
62584;SDS011;48643;51.670;5.808;2023-04-25T01:22:33;7.15;;;2.80;;
62584;SDS011;48643;51.670;5.808;2023-04-25T01:25:00;7.72;;;2.80;;
62584;SDS011;48643;51.670;5.808;2023-04-25T01:27:29;6.15;;;2.75;;
62584;SDS011;48643;51.670;5.808;2023-04-25T01:29:56;6.65;;;2.63;;
62584;SDS011;48643;51.670;5.808;2023-04-25T01:32:24;6.30;;;2.65;;
62584;SDS011;48643;51.670;5.808;2023-04-25T01:34:51;8.13;;;2.85;;
62584;SDS011;48643;51.670;5.808;2023-04-25T01:37:18;7.05;;;2.70;;
62584;SDS011;48643;51.670;5.808;2023-04-25T01:39:46;6.55;;;2.70;;
62584;SDS011;48643;51.670;5.808;2023-04-25T01:42:13;9.05;;;2.72;;
62584;SDS011;48643;51.670;5.808;2023-04-25T01:44:40;8.40;;;3.00;;
62584;SDS011;48643;51.670;5.808;2023-04-25T01:47:07;9.88;;;2.97;;
62584;SDS011;48643;51.670;5.808;2023-04-25T01:49:34;8.93;;;2.90;;
62584;SDS011;48643;51.670;5.808;2023-04-25T01:52:00;6.30;;;2.30;;
62584;SDS011;48643;51.670;5.808;2023-04-25T01:54:27;8.30;;;2.50;;
62584;SDS011;48643;51.670;5.808;2023-04-25T01:56:55;8.48;;;2.92;;
62584;SDS011;48643;51.670;5.808;2023-04-25T01:59:23;6.85;;;2.70;;
62584;SDS011;48643;51.670;5.808;2023-04-25T02:01:59;8.45;;;2.78;;
62584;SDS011;48643;51.670;5.808;2023-04-25T02:04:31;6.63;;;2.72;;
62584;SDS011;48643;51.670;5.808;2023-04-25T02:06:58;5.38;;;2.53;;
62584;SDS011;48643;51.670;5.808;2023-04-25T02:09:34;6.03;;;2.65;;
62584;SDS011;48643;51.670;5.808;2023-04-25T02:12:04;7.93;;;2.80;;
62584;SDS011;48643;51.670;5.808;2023-04-25T02:14:55;8.82;;;2.78;;
62584;SDS011;48643;51.670;5.808;2023-04-25T02:17:33;8.30;;;2.90;;
62584;SDS011;48643;51.670;5.808;2023-04-25T02:20:00;9.35;;;2.55;;
62584;SDS011;48643;51.670;5.808;2023-04-25T02:22:27;6.40;;;2.80;;
62584;SDS011;48643;51.670;5.808;2023-04-25T02:24:56;12.02;;;2.92;;
62584;SDS011;48643;51.670;5.808;2023-04-25T02:27:24;10.25;;;2.72;;
62584;SDS011;48643;51.670;5.808;2023-04-25T02:29:50;7.82;;;2.55;;
62584;SDS011;48643;51.670;5.808;2023-04-25T02:32:18;7.28;;;2.50;;
62584;SDS011;48643;51.670;5.808;2023-04-25T02:34:46;7.03;;;2.80;;
62584;SDS011;48643;51.670;5.808;2023-04-25T02:37:12;6.63;;;2.53;;
62584;SDS011;48643;51.670;5.808;2023-04-25T02:39:39;8.07;;;2.63;;
62584;SDS011;48643;51.670;5.808;2023-04-25T02:42:06;6.68;;;2.67;;
62584;SDS011;48643;51.670;5.808;2023-04-25T02:44:33;8.07;;;2.72;;
62584;SDS011;48643;51.670;5.808;2023-04-25T02:46:59;7.15;;;2.78;;
62584;SDS011;48643;51.670;5.808;2023-04-25T02:49:26;6.28;;;2.70;;
62584;SDS011;48643;51.670;5.808;2023-04-25T02:51:53;7.22;;;2.60;;
62584;SDS011;48643;51.670;5.808;2023-04-25T02:54:20;8.55;;;2.78;;
62584;SDS011;48643;51.670;5.808;2023-04-25T02:56:47;8.85;;;2.78;;
62584;SDS011;48643;51.670;5.808;2023-04-25T02:59:21;7.43;;;2.70;;
62584;SDS011;48643;51.670;5.808;2023-04-25T03:01:48;7.55;;;2.70;;
62584;SDS011;48643;51.670;5.808;2023-04-25T03:04:15;6.90;;;2.65;;
62584;SDS011;48643;51.670;5.808;2023-04-25T03:06:42;11.35;;;2.97;;
62584;SDS011;48643;51.670;5.808;2023-04-25T03:09:08;6.25;;;2.63;;
62584;SDS011;48643;51.670;5.808;2023-04-25T03:11:37;7.45;;;2.70;;
62584;SDS011;48643;51.670;5.808;2023-04-25T03:14:05;7.78;;;2.53;;
62584;SDS011;48643;51.670;5.808;2023-04-25T03:16:33;8.30;;;3.00;;
62584;SDS011;48643;51.670;5.808;2023-04-25T03:19:00;8.13;;;2.72;;
62584;SDS011;48643;51.670;5.808;2023-04-25T03:21:27;8.40;;;2.95;;
62584;SDS011;48643;51.670;5.808;2023-04-25T03:23:53;8.63;;;3.03;;
62584;SDS011;48643;51.670;5.808;2023-04-25T03:26:20;6.85;;;2.78;;
62584;SDS011;48643;51.670;5.808;2023-04-25T03:28:47;8.18;;;2.63;;
62584;SDS011;48643;51.670;5.808;2023-04-25T03:31:14;8.45;;;2.80;;
62584;SDS011;48643;51.670;5.808;2023-04-25T03:33:41;8.25;;;2.90;;
62584;SDS011;48643;51.670;5.808;2023-04-25T03:36:08;9.45;;;2.90;;
62584;SDS011;48643;51.670;5.808;2023-04-25T03:38:36;6.38;;;2.83;;
62584;SDS011;48643;51.670;5.808;2023-04-25T03:41:04;7.60;;;2.80;;
62584;SDS011;48643;51.670;5.808;2023-04-25T03:43:41;7.60;;;2.70;;
62584;SDS011;48643;51.670;5.808;2023-04-25T03:46:11;8.15;;;2.80;;
62584;SDS011;48643;51.670;5.808;2023-04-25T03:48:39;7.20;;;2.90;;
62584;SDS011;48643;51.670;5.808;2023-04-25T03:51:08;9.20;;;2.58;;
62584;SDS011;48643;51.670;5.808;2023-04-25T03:53:38;10.20;;;2.70;;
62584;SDS011;48643;51.670;5.808;2023-04-25T03:56:14;6.40;;;2.80;;
62584;SDS011;48643;51.670;5.808;2023-04-25T03:58:44;12.75;;;3.10;;
62584;SDS011;48643;51.670;5.808;2023-04-25T04:01:13;8.27;;;2.88;;
62584;SDS011;48643;51.670;5.808;2023-04-25T04:03:41;7.72;;;2.75;;
62584;SDS011;48643;51.670;5.808;2023-04-25T04:06:08;6.72;;;2.75;;
62584;SDS011;48643;51.670;5.808;2023-04-25T04:08:42;9.45;;;2.78;;
62584;SDS011;48643;51.670;5.808;2023-04-25T04:11:10;5.95;;;2.40;;
62584;SDS011;48643;51.670;5.808;2023-04-25T04:13:37;6.38;;;2.83;;
62584;SDS011;48643;51.670;5.808;2023-04-25T04:16:05;6.82;;;2.80;;
62584;SDS011;48643;51.670;5.808;2023-04-25T04:18:32;5.78;;;2.78;;
62584;SDS011;48643;51.670;5.808;2023-04-25T04:21:00;6.97;;;2.80;;
62584;SDS011;48643;51.670;5.808;2023-04-25T04:25:58;7.80;;;2.63;;
62584;SDS011;48643;51.670;5.808;2023-04-25T04:28:50;10.23;;;2.80;;
62584;SDS011;48643;51.670;5.808;2023-04-25T04:31:36;9.32;;;2.97;;
62584;SDS011;48643;51.670;5.808;2023-04-25T04:34:04;7.40;;;3.10;;
62584;SDS011;48643;51.670;5.808;2023-04-25T04:36:33;11.02;;;2.90;;
62584;SDS011;48643;51.670;5.808;2023-04-25T04:39:00;7.72;;;2.75;;
62584;SDS011;48643;51.670;5.808;2023-04-25T04:41:42;10.07;;;3.13;;
62584;SDS011;48643;51.670;5.808;2023-04-25T04:44:28;7.60;;;2.83;;
62584;SDS011;48643;51.670;5.808;2023-04-25T04:47:25;6.95;;;2.90;;
62584;SDS011;48643;51.670;5.808;2023-04-25T04:50:02;7.07;;;2.67;;
62584;SDS011;48643;51.670;5.808;2023-04-25T04:52:58;7.07;;;2.90;;
62584;SDS011;48643;51.670;5.808;2023-04-25T04:55:39;9.38;;;3.30;;
62584;SDS011;48643;51.670;5.808;2023-04-25T04:58:27;9.18;;;2.95;;
62584;SDS011;48643;51.670;5.808;2023-04-25T05:01:18;8.88;;;2.80;;
62584;SDS011;48643;51.670;5.808;2023-04-25T05:03:58;7.68;;;2.88;;
62584;SDS011;48643;51.670;5.808;2023-04-25T05:06:45;9.38;;;3.10;;
62584;SDS011;48643;51.670;5.808;2023-04-25T05:09:29;10.65;;;3.15;;
62584;SDS011;48643;51.670;5.808;2023-04-25T05:12:14;8.88;;;3.17;;
62584;SDS011;48643;51.670;5.808;2023-04-25T05:14:59;11.05;;;2.92;;
62584;SDS011;48643;51.670;5.808;2023-04-25T05:17:46;8.68;;;2.97;;
62584;SDS011;48643;51.670;5.808;2023-04-25T05:20:33;7.78;;;2.80;;
62584;SDS011;48643;51.670;5.808;2023-04-25T05:23:14;12.38;;;3.00;;
62584;SDS011;48643;51.670;5.808;2023-04-25T05:26:01;9.50;;;2.95;;
62584;SDS011;48643;51.670;5.808;2023-04-25T05:28:40;10.35;;;3.33;;
62584;SDS011;48643;51.670;5.808;2023-04-25T05:31:22;8.80;;;2.80;;
62584;SDS011;48643;51.670;5.808;2023-04-25T05:33:55;6.57;;;2.85;;
62584;SDS011;48643;51.670;5.808;2023-04-25T05:36:26;10.65;;;2.80;;
62584;SDS011;48643;51.670;5.808;2023-04-25T05:38:54;6.93;;;3.00;;
62584;SDS011;48643;51.670;5.808;2023-04-25T05:41:41;10.25;;;3.13;;
62584;SDS011;48643;51.670;5.808;2023-04-25T05:44:23;9.07;;;2.53;;
62584;SDS011;48643;51.670;5.808;2023-04-25T05:47:13;7.78;;;2.75;;
62584;SDS011;48643;51.670;5.808;2023-04-25T05:49:54;7.80;;;2.80;;
62584;SDS011;48643;51.670;5.808;2023-04-25T05:52:43;7.97;;;3.20;;
62584;SDS011;48643;51.670;5.808;2023-04-25T05:55:22;8.55;;;3.05;;
62584;SDS011;48643;51.670;5.808;2023-04-25T05:57:49;9.60;;;2.90;;
62584;SDS011;48643;51.670;5.808;2023-04-25T06:00:17;7.20;;;2.78;;
62584;SDS011;48643;51.670;5.808;2023-04-25T06:02:48;9.02;;;3.15;;
62584;SDS011;48643;51.670;5.808;2023-04-25T06:05:16;8.45;;;2.97;;
62584;SDS011;48643;51.670;5.808;2023-04-25T06:07:45;7.80;;;2.90;;
62584;SDS011;48643;51.670;5.808;2023-04-25T06:10:13;5.80;;;2.65;;
62584;SDS011;48643;51.670;5.808;2023-04-25T06:12:41;8.57;;;2.80;;
62584;SDS011;48643;51.670;5.808;2023-04-25T06:15:08;9.43;;;2.83;;
62584;SDS011;48643;51.670;5.808;2023-04-25T06:17:53;9.82;;;2.85;;
62584;SDS011;48643;51.670;5.808;2023-04-25T06:20:20;5.57;;;2.78;;
62584;SDS011;48643;51.670;5.808;2023-04-25T06:22:51;6.47;;;2.67;;
62584;SDS011;48643;51.670;5.808;2023-04-25T06:25:22;7.70;;;2.88;;
62584;SDS011;48643;51.670;5.808;2023-04-25T06:27:49;6.22;;;2.53;;
62584;SDS011;48643;51.670;5.808;2023-04-25T06:30:16;15.85;;;3.35;;
62584;SDS011;48643;51.670;5.808;2023-04-25T06:32:51;13.30;;;3.97;;
62584;SDS011;48643;51.670;5.808;2023-04-25T06:35:21;15.65;;;3.95;;
62584;SDS011;48643;51.670;5.808;2023-04-25T06:37:48;12.80;;;3.75;;
62584;SDS011;48643;51.670;5.808;2023-04-25T06:40:20;16.58;;;3.92;;
62584;SDS011;48643;51.670;5.808;2023-04-25T06:42:47;16.05;;;3.80;;
62584;SDS011;48643;51.670;5.808;2023-04-25T06:45:33;12.52;;;3.25;;
62584;SDS011;48643;51.670;5.808;2023-04-25T06:48:00;11.32;;;3.20;;
62584;SDS011;48643;51.670;5.808;2023-04-25T06:50:29;12.65;;;3.53;;
62584;SDS011;48643;51.670;5.808;2023-04-25T06:52:56;13.10;;;3.38;;
62584;SDS011;48643;51.670;5.808;2023-04-25T06:55:23;10.95;;;3.15;;
62584;SDS011;48643;51.670;5.808;2023-04-25T06:58:09;9.68;;;3.10;;
62584;SDS011;48643;51.670;5.808;2023-04-25T07:00:59;9.52;;;3.00;;
62584;SDS011;48643;51.670;5.808;2023-04-25T07:03:26;13.93;;;3.25;;
62584;SDS011;48643;51.670;5.808;2023-04-25T07:05:58;8.23;;;3.00;;
62584;SDS011;48643;51.670;5.808;2023-04-25T07:08:28;10.37;;;3.03;;
62584;SDS011;48643;51.670;5.808;2023-04-25T07:10:57;11.52;;;3.45;;
62584;SDS011;48643;51.670;5.808;2023-04-25T07:13:24;10.75;;;3.20;;
62584;SDS011;48643;51.670;5.808;2023-04-25T07:15:51;8.75;;;2.60;;
62584;SDS011;48643;51.670;5.808;2023-04-25T07:18:22;7.85;;;2.67;;
62584;SDS011;48643;51.670;5.808;2023-04-25T07:20:49;8.00;;;2.72;;
62584;SDS011;48643;51.670;5.808;2023-04-25T07:23:17;8.52;;;2.75;;
62584;SDS011;48643;51.670;5.808;2023-04-25T07:25:46;7.45;;;2.30;;
62584;SDS011;48643;51.670;5.808;2023-04-25T07:28:19;9.02;;;2.60;;
62584;SDS011;48643;51.670;5.808;2023-04-25T07:30:46;7.20;;;2.65;;
62584;SDS011;48643;51.670;5.808;2023-04-25T07:33:13;7.93;;;2.35;;
62584;SDS011;48643;51.670;5.808;2023-04-25T07:35:41;7.95;;;2.40;;
62584;SDS011;48643;51.670;5.808;2023-04-25T07:38:09;10.80;;;2.60;;
62584;SDS011;48643;51.670;5.808;2023-04-25T07:40:37;10.20;;;2.58;;
62584;SDS011;48643;51.670;5.808;2023-04-25T07:43:07;7.82;;;2.30;;
62584;SDS011;48643;51.670;5.808;2023-04-25T07:45:47;6.88;;;2.25;;
62584;SDS011;48643;51.670;5.808;2023-04-25T07:50:48;7.82;;;2.47;;
62584;SDS011;48643;51.670;5.808;2023-04-25T07:53:18;7.07;;;2.45;;
62584;SDS011;48643;51.670;5.808;2023-04-25T07:55:51;7.65;;;2.38;;
62584;SDS011;48643;51.670;5.808;2023-04-25T07:58:19;6.95;;;2.38;;
62584;SDS011;48643;51.670;5.808;2023-04-25T08:00:55;13.15;;;2.67;;
62584;SDS011;48643;51.670;5.808;2023-04-25T08:03:37;10.05;;;2.70;;
62584;SDS011;48643;51.670;5.808;2023-04-25T08:06:10;13.30;;;2.60;;
62584;SDS011;48643;51.670;5.808;2023-04-25T08:08:49;11.43;;;2.90;;
62584;SDS011;48643;51.670;5.808;2023-04-25T08:11:20;15.07;;;2.80;;
62584;SDS011;48643;51.670;5.808;2023-04-25T08:13:47;10.23;;;2.60;;
62584;SDS011;48643;51.670;5.808;2023-04-25T08:16:14;8.75;;;2.60;;
62584;SDS011;48643;51.670;5.808;2023-04-25T08:18:42;13.02;;;3.25;;
62584;SDS011;48643;51.670;5.808;2023-04-25T08:21:09;12.50;;;2.78;;
62584;SDS011;48643;51.670;5.808;2023-04-25T08:23:38;10.15;;;3.10;;
62584;SDS011;48643;51.670;5.808;2023-04-25T08:26:11;18.20;;;8.55;;
62584;SDS011;48643;51.670;5.808;2023-04-25T08:28:41;13.23;;;7.22;;
62584;SDS011;48643;51.670;5.808;2023-04-25T08:31:08;10.98;;;5.30;;
62584;SDS011;48643;51.670;5.808;2023-04-25T08:33:46;10.25;;;5.10;;
62584;SDS011;48643;51.670;5.808;2023-04-25T08:36:22;9.68;;;4.80;;
62584;SDS011;48643;51.670;5.808;2023-04-25T08:39:03;10.75;;;3.60;;
62584;SDS011;48643;51.670;5.808;2023-04-25T08:41:49;19.92;;;3.53;;
62584;SDS011;48643;51.670;5.808;2023-04-25T08:44:16;9.77;;;3.58;;
62584;SDS011;48643;51.670;5.808;2023-04-25T08:46:43;11.00;;;3.55;;
62584;SDS011;48643;51.670;5.808;2023-04-25T08:49:26;13.73;;;3.47;;
62584;SDS011;48643;51.670;5.808;2023-04-25T08:51:53;11.55;;;3.00;;
62584;SDS011;48643;51.670;5.808;2023-04-25T08:54:23;12.13;;;3.25;;
62584;SDS011;48643;51.670;5.808;2023-04-25T08:57:02;22.30;;;3.65;;
62584;SDS011;48643;51.670;5.808;2023-04-25T08:59:30;17.48;;;3.83;;
62584;SDS011;48643;51.670;5.808;2023-04-25T09:02:00;12.27;;;3.53;;
62584;SDS011;48643;51.670;5.808;2023-04-25T09:06:58;16.65;;;3.30;;
62584;SDS011;48643;51.670;5.808;2023-04-25T09:09:27;9.98;;;3.15;;
62584;SDS011;48643;51.670;5.808;2023-04-25T09:11:55;16.25;;;3.65;;
62584;SDS011;48643;51.670;5.808;2023-04-25T09:14:24;13.68;;;3.28;;
62584;SDS011;48643;51.670;5.808;2023-04-25T09:17:22;15.05;;;3.45;;
62584;SDS011;48643;51.670;5.808;2023-04-25T09:19:52;19.63;;;3.42;;
62584;SDS011;48643;51.670;5.808;2023-04-25T09:22:25;14.68;;;3.67;;
62584;SDS011;48643;51.670;5.808;2023-04-25T09:24:52;11.75;;;3.40;;
62584;SDS011;48643;51.670;5.808;2023-04-25T09:27:22;10.73;;;3.42;;
62584;SDS011;48643;51.670;5.808;2023-04-25T09:29:56;13.32;;;3.40;;
62584;SDS011;48643;51.670;5.808;2023-04-25T09:32:33;10.93;;;3.35;;
62584;SDS011;48643;51.670;5.808;2023-04-25T09:35:00;12.85;;;3.38;;
62584;SDS011;48643;51.670;5.808;2023-04-25T09:37:29;11.38;;;3.60;;
62584;SDS011;48643;51.670;5.808;2023-04-25T09:40:15;14.10;;;3.53;;
62584;SDS011;48643;51.670;5.808;2023-04-25T09:42:57;8.23;;;3.30;;
62584;SDS011;48643;51.670;5.808;2023-04-25T09:45:26;12.43;;;3.35;;
62584;SDS011;48643;51.670;5.808;2023-04-25T09:47:59;8.55;;;2.88;;
62584;SDS011;48643;51.670;5.808;2023-04-25T09:50:34;9.13;;;2.97;;
62584;SDS011;48643;51.670;5.808;2023-04-25T09:53:09;11.13;;;3.22;;
62584;SDS011;48643;51.670;5.808;2023-04-25T09:55:52;13.05;;;3.03;;
62584;SDS011;48643;51.670;5.808;2023-04-25T09:58:18;9.20;;;3.05;;
62584;SDS011;48643;51.670;5.808;2023-04-25T10:00:46;11.18;;;2.80;;
62584;SDS011;48643;51.670;5.808;2023-04-25T10:03:25;10.85;;;3.03;;
62584;SDS011;48643;51.670;5.808;2023-04-25T10:06:19;8.00;;;2.67;;
62584;SDS011;48643;51.670;5.808;2023-04-25T10:08:49;6.78;;;2.80;;
62584;SDS011;48643;51.670;5.808;2023-04-25T10:11:17;7.20;;;3.35;;
62584;SDS011;48643;51.670;5.808;2023-04-25T10:13:46;10.65;;;3.65;;
62584;SDS011;48643;51.670;5.808;2023-04-25T10:16:16;8.85;;;3.17;;
62584;SDS011;48643;51.670;5.808;2023-04-25T10:18:43;7.35;;;3.15;;
62584;SDS011;48643;51.670;5.808;2023-04-25T10:21:10;10.82;;;3.10;;
62584;SDS011;48643;51.670;5.808;2023-04-25T10:23:37;9.88;;;3.15;;
62584;SDS011;48643;51.670;5.808;2023-04-25T10:26:07;11.02;;;3.08;;
62584;SDS011;48643;51.670;5.808;2023-04-25T10:28:58;12.10;;;3.25;;
62584;SDS011;48643;51.670;5.808;2023-04-25T10:31:28;12.95;;;3.33;;
62584;SDS011;48643;51.670;5.808;2023-04-25T10:33:57;7.68;;;3.00;;
62584;SDS011;48643;51.670;5.808;2023-04-25T10:36:26;21.55;;;4.22;;
62584;SDS011;48643;51.670;5.808;2023-04-25T10:38:56;13.75;;;2.55;;
62584;SDS011;48643;51.670;5.808;2023-04-25T10:41:45;8.25;;;2.38;;
62584;SDS011;48643;51.670;5.808;2023-04-25T10:44:14;16.65;;;2.40;;
62584;SDS011;48643;51.670;5.808;2023-04-25T10:46:41;9.55;;;2.60;;
62584;SDS011;48643;51.670;5.808;2023-04-25T10:49:28;8.73;;;2.45;;
62584;SDS011;48643;51.670;5.808;2023-04-25T10:54:47;10.60;;;2.50;;
62584;SDS011;48643;51.670;5.808;2023-04-25T10:57:38;8.45;;;2.30;;
62584;SDS011;48643;51.670;5.808;2023-04-25T11:00:16;9.38;;;2.42;;
62584;SDS011;48643;51.670;5.808;2023-04-25T11:02:46;8.65;;;2.17;;
62584;SDS011;48643;51.670;5.808;2023-04-25T11:05:20;12.00;;;2.50;;
62584;SDS011;48643;51.670;5.808;2023-04-25T11:08:01;9.32;;;2.33;;
62584;SDS011;48643;51.670;5.808;2023-04-25T11:10:34;5.78;;;2.10;;
62584;SDS011;48643;51.670;5.808;2023-04-25T11:13:05;8.60;;;2.30;;
62584;SDS011;48643;51.670;5.808;2023-04-25T11:15:34;9.88;;;2.42;;
62584;SDS011;48643;51.670;5.808;2023-04-25T11:18:02;9.93;;;2.65;;
62584;SDS011;48643;51.670;5.808;2023-04-25T11:20:30;11.10;;;2.45;;
62584;SDS011;48643;51.670;5.808;2023-04-25T11:22:58;7.30;;;2.08;;
62584;SDS011;48643;51.670;5.808;2023-04-25T11:25:26;9.52;;;2.60;;
62584;SDS011;48643;51.670;5.808;2023-04-25T11:27:55;6.55;;;2.53;;
62584;SDS011;48643;51.670;5.808;2023-04-25T11:30:24;6.55;;;2.22;;
62584;SDS011;48643;51.670;5.808;2023-04-25T11:32:52;10.15;;;2.55;;
62584;SDS011;48643;51.670;5.808;2023-04-25T11:35:19;10.52;;;2.72;;
62584;SDS011;48643;51.670;5.808;2023-04-25T11:37:49;6.28;;;2.10;;
62584;SDS011;48643;51.670;5.808;2023-04-25T11:40:16;7.55;;;2.20;;
62584;SDS011;48643;51.670;5.808;2023-04-25T11:42:44;6.53;;;1.98;;
62584;SDS011;48643;51.670;5.808;2023-04-25T11:45:12;7.45;;;2.10;;
62584;SDS011;48643;51.670;5.808;2023-04-25T11:47:39;12.00;;;2.40;;
62584;SDS011;48643;51.670;5.808;2023-04-25T11:50:06;7.78;;;2.22;;
62584;SDS011;48643;51.670;5.808;2023-04-25T11:52:41;12.27;;;2.38;;
62584;SDS011;48643;51.670;5.808;2023-04-25T11:55:09;9.80;;;2.30;;
62584;SDS011;48643;51.670;5.808;2023-04-25T11:57:41;11.30;;;2.30;;
62584;SDS011;48643;51.670;5.808;2023-04-25T12:02:46;8.02;;;2.17;;
62584;SDS011;48643;51.670;5.808;2023-04-25T12:05:15;6.03;;;2.20;;
62584;SDS011;48643;51.670;5.808;2023-04-25T12:07:57;10.43;;;1.92;;
62584;SDS011;48643;51.670;5.808;2023-04-25T12:10:24;7.35;;;2.20;;
62584;SDS011;48643;51.670;5.808;2023-04-25T12:12:52;7.07;;;2.10;;
62584;SDS011;48643;51.670;5.808;2023-04-25T12:15:24;5.43;;;2.07;;
62584;SDS011;48643;51.670;5.808;2023-04-25T12:17:52;7.15;;;2.33;;
62584;SDS011;48643;51.670;5.808;2023-04-25T12:20:21;6.55;;;2.20;;
62584;SDS011;48643;51.670;5.808;2023-04-25T12:22:51;5.80;;;2.10;;
62584;SDS011;48643;51.670;5.808;2023-04-25T12:25:35;9.73;;;2.10;;
62584;SDS011;48643;51.670;5.808;2023-04-25T12:28:15;4.07;;;1.85;;
62584;SDS011;48643;51.670;5.808;2023-04-25T12:33:30;6.43;;;1.92;;
62584;SDS011;48643;51.670;5.808;2023-04-25T12:35:59;4.55;;;1.65;;
62584;SDS011;48643;51.670;5.808;2023-04-25T12:40:56;7.03;;;1.80;;
62584;SDS011;48643;51.670;5.808;2023-04-25T12:43:24;7.75;;;1.75;;
62584;SDS011;48643;51.670;5.808;2023-04-25T12:45:54;6.70;;;1.70;;
62584;SDS011;48643;51.670;5.808;2023-04-25T12:48:22;3.10;;;1.65;;
62584;SDS011;48643;51.670;5.808;2023-04-25T12:50:50;4.43;;;1.70;;
62584;SDS011;48643;51.670;5.808;2023-04-25T12:53:19;4.93;;;1.65;;
62584;SDS011;48643;51.670;5.808;2023-04-25T12:55:46;4.35;;;1.60;;
62584;SDS011;48643;51.670;5.808;2023-04-25T12:58:14;5.15;;;1.77;;
62584;SDS011;48643;51.670;5.808;2023-04-25T13:00:42;6.15;;;2.03;;
62584;SDS011;48643;51.670;5.808;2023-04-25T13:03:09;4.53;;;1.80;;
62584;SDS011;48643;51.670;5.808;2023-04-25T13:05:40;6.30;;;1.92;;
62584;SDS011;48643;51.670;5.808;2023-04-25T13:08:07;5.13;;;1.80;;
62584;SDS011;48643;51.670;5.808;2023-04-25T13:10:34;5.07;;;1.80;;
62584;SDS011;48643;51.670;5.808;2023-04-25T13:13:02;5.60;;;1.77;;
62584;SDS011;48643;51.670;5.808;2023-04-25T13:15:29;9.25;;;1.88;;
62584;SDS011;48643;51.670;5.808;2023-04-25T13:17:56;4.38;;;1.90;;
62584;SDS011;48643;51.670;5.808;2023-04-25T13:20:23;6.40;;;1.90;;
62584;SDS011;48643;51.670;5.808;2023-04-25T13:22:50;8.75;;;1.95;;
62584;SDS011;48643;51.670;5.808;2023-04-25T13:25:16;6.60;;;1.80;;
62584;SDS011;48643;51.670;5.808;2023-04-25T13:27:44;5.25;;;1.63;;
62584;SDS011;48643;51.670;5.808;2023-04-25T13:30:11;6.70;;;2.00;;
62584;SDS011;48643;51.670;5.808;2023-04-25T13:32:38;5.63;;;1.90;;
62584;SDS011;48643;51.670;5.808;2023-04-25T13:35:07;7.10;;;2.03;;
62584;SDS011;48643;51.670;5.808;2023-04-25T13:37:36;5.68;;;2.35;;
62584;SDS011;48643;51.670;5.808;2023-04-25T13:40:05;5.25;;;2.40;;
62584;SDS011;48643;51.670;5.808;2023-04-25T13:42:37;4.95;;;2.88;;
62584;SDS011;48643;51.670;5.808;2023-04-25T13:45:04;5.57;;;2.53;;
62584;SDS011;48643;51.670;5.808;2023-04-25T13:47:32;5.93;;;2.40;;
62584;SDS011;48643;51.670;5.808;2023-04-25T13:49:59;5.03;;;2.42;;
62584;SDS011;48643;51.670;5.808;2023-04-25T13:52:26;4.93;;;2.60;;
62584;SDS011;48643;51.670;5.808;2023-04-25T13:54:53;8.80;;;2.60;;
62584;SDS011;48643;51.670;5.808;2023-04-25T13:57:20;7.93;;;2.70;;
62584;SDS011;48643;51.670;5.808;2023-04-25T13:59:47;4.15;;;2.42;;
62584;SDS011;48643;51.670;5.808;2023-04-25T14:02:14;5.88;;;2.40;;
62584;SDS011;48643;51.670;5.808;2023-04-25T14:04:42;5.55;;;2.50;;
62584;SDS011;48643;51.670;5.808;2023-04-25T14:07:09;7.43;;;2.45;;
62584;SDS011;48643;51.670;5.808;2023-04-25T14:09:37;7.57;;;2.97;;
62584;SDS011;48643;51.670;5.808;2023-04-25T14:12:04;4.22;;;2.33;;
62584;SDS011;48643;51.670;5.808;2023-04-25T14:14:32;4.30;;;2.40;;
62584;SDS011;48643;51.670;5.808;2023-04-25T14:16:59;5.90;;;2.42;;
62584;SDS011;48643;51.670;5.808;2023-04-25T14:19:26;5.22;;;2.30;;
62584;SDS011;48643;51.670;5.808;2023-04-25T14:21:54;6.05;;;2.40;;
62584;SDS011;48643;51.670;5.808;2023-04-25T14:24:21;5.55;;;2.60;;
62584;SDS011;48643;51.670;5.808;2023-04-25T14:26:48;7.30;;;2.10;;
62584;SDS011;48643;51.670;5.808;2023-04-25T14:29:15;4.85;;;2.30;;
62584;SDS011;48643;51.670;5.808;2023-04-25T14:31:42;4.85;;;2.72;;
62584;SDS011;48643;51.670;5.808;2023-04-25T14:34:09;5.07;;;2.30;;
62584;SDS011;48643;51.670;5.808;2023-04-25T14:36:36;6.30;;;2.35;;
62584;SDS011;48643;51.670;5.808;2023-04-25T14:39:03;6.18;;;2.38;;
62584;SDS011;48643;51.670;5.808;2023-04-25T14:41:31;6.10;;;2.40;;
62584;SDS011;48643;51.670;5.808;2023-04-25T14:43:59;3.35;;;2.30;;
62584;SDS011;48643;51.670;5.808;2023-04-25T14:46:26;5.63;;;2.50;;
62584;SDS011;48643;51.670;5.808;2023-04-25T14:48:53;4.50;;;2.45;;
62584;SDS011;48643;51.670;5.808;2023-04-25T14:51:22;3.53;;;2.00;;
62584;SDS011;48643;51.670;5.808;2023-04-25T14:53:49;4.45;;;2.17;;
62584;SDS011;48643;51.670;5.808;2023-04-25T14:56:17;3.80;;;2.10;;
62584;SDS011;48643;51.670;5.808;2023-04-25T14:58:45;3.88;;;2.10;;
62584;SDS011;48643;51.670;5.808;2023-04-25T15:01:13;4.43;;;2.13;;
62584;SDS011;48643;51.670;5.808;2023-04-25T15:03:41;3.97;;;2.17;;
62584;SDS011;48643;51.670;5.808;2023-04-25T15:06:08;5.18;;;2.50;;
62584;SDS011;48643;51.670;5.808;2023-04-25T15:08:36;5.80;;;2.42;;
62584;SDS011;48643;51.670;5.808;2023-04-25T15:11:03;3.83;;;2.10;;
62584;SDS011;48643;51.670;5.808;2023-04-25T15:13:30;3.28;;;2.20;;
62584;SDS011;48643;51.670;5.808;2023-04-25T15:15:57;3.88;;;1.92;;
62584;SDS011;48643;51.670;5.808;2023-04-25T15:18:24;3.70;;;1.90;;
62584;SDS011;48643;51.670;5.808;2023-04-25T15:20:52;4.00;;;1.92;;
62584;SDS011;48643;51.670;5.808;2023-04-25T15:23:19;5.00;;;2.15;;
62584;SDS011;48643;51.670;5.808;2023-04-25T15:25:49;4.45;;;2.20;;
62584;SDS011;48643;51.670;5.808;2023-04-25T15:28:16;4.53;;;2.00;;